Time;durP1;ratioP1;P1;durP2;ratioP2;P2;SDS_P1;SDS_P2;PMS_P1;PMS_P2;Temp;Humidity;BMP_temperature;BMP_pressure;BME280_temperature;BME280_humidity;BME280_pressure;Samples;Min_cycle;Max_cycle;Signal;HPM_P1;HPM_P2
2023/07/22 00:02:09;;;;;;;11.23;4.78;;;;;;;;;;5087092;28;20028;-79
2023/07/22 00:04:38;;;;;;;13.70;5.25;;;;;;;;;;5086683;28;20075;-79
2023/07/22 00:11:05;;;;;;;11.73;5.65;;;;;;;;;;5004313;28;20049;-79
2023/07/22 00:14:09;;;;;;;14.50;5.53;;;;;;;;;;4973782;28;20196;-79
2023/07/22 00:16:38;;;;;;;9.02;5.43;;;;;;;;;;4995918;28;20202;-79
2023/07/22 00:19:04;;;;;;;10.25;4.85;;;;;;;;;;5003609;28;20069;-79
2023/07/22 00:21:34;;;;;;;9.18;4.63;;;;;;;;;;5044437;28;20071;-79
2023/07/22 00:24:05;;;;;;;8.38;5.15;;;;;;;;;;5065638;28;20041;-79
2023/07/22 00:26:45;;;;;;;13.45;5.32;;;;;;;;;;5071248;28;20016;-79
2023/07/22 00:29:17;;;;;;;10.68;5.35;;;;;;;;;;5086451;28;20020;-79
2023/07/22 00:34:50;;;;;;;10.23;5.63;;;;;;;;;;5081151;28;20093;-79
2023/07/22 00:37:19;;;;;;;10.68;5.30;;;;;;;;;;5086338;28;20032;-79
2023/07/22 00:40:03;;;;;;;;;;;;;;;;;;;;;
2023/07/22 00:43:00;;;;;;;;;;;;;;;;;;;;;
2023/07/22 00:45:36;;;;;;;12.32;5.68;;;;;;;;;;5053821;28;20029;-79
2023/07/22 00:48:38;;;;;;;;;;;;;;;;;;;;;
2023/07/22 00:54:57;;;;;;;10.57;5.30;;;;;;;;;;5008127;28;20037;-79
2023/07/22 00:57:44;;;;;;;16.27;6.97;;;;;;;;;;5049512;28;20064;-79
2023/07/22 01:00:32;;;;;;;12.07;5.53;;;;;;;;;;5052461;28;20094;-79
2023/07/22 01:02:59;;;;;;;11.95;5.93;;;;;;;;;;5051844;28;20070;-79
2023/07/22 01:05:32;;;;;;;18.63;6.07;;;;;;;;;;5065711;28;20577;-79
2023/07/22 01:08:02;;;;;;;;;;;;;;;;;;5032720;28;20111;-79
2023/07/22 01:10:33;;;;;;;12.93;6.68;;;;;;;;;;5054036;28;19912;-79
2023/07/22 01:12:59;;;;;;;14.07;5.63;;;;;;;;;;5044772;28;20119;-79
2023/07/22 01:15:32;;;;;;;13.30;5.30;;;;;;;;;;5044693;28;20120;-79
2023/07/22 01:18:02;;;;;;;15.63;6.35;;;;;;;;;;5035137;28;20530;-79
2023/07/22 01:20:31;;;;;;;14.02;6.45;;;;;;;;;;5044082;28;20020;-79
2023/07/22 01:23:07;;;;;;;;;;;;;;;;;;;;;
2023/07/22 01:25:40;;;;;;;17.02;6.22;;;;;;;;;;5043906;28;20039;-79
2023/07/22 01:28:10;;;;;;;13.80;5.50;;;;;;;;;;5063205;28;20583;-79
2023/07/22 01:30:36;;;;;;;18.80;7.03;;;;;;;;;;5064537;28;20032;-79
2023/07/22 01:40:22;;;;;;;16.30;5.63;;;;;;;;;;4949376;28;20694;-79
2023/07/22 01:43:21;;;;;;;14.88;6.43;;;;;;;;;;5020853;28;20041;-79
2023/07/22 01:45:53;;;;;;;10.73;5.63;;;;;;;;;;5017950;28;20041;-79
2023/07/22 01:48:22;;;;;;;15.98;6.03;;;;;;;;;;5011985;28;20550;-80
2023/07/22 01:50:56;;;;;;;13.38;6.80;;;;;;;;;;5060853;28;20028;-79
2023/07/22 01:53:22;;;;;;;13.90;6.63;;;;;;;;;;5084542;28;20032;-79
2023/07/22 01:55:51;;;;;;;11.82;5.95;;;;;;;;;;5085209;28;20585;-80
2023/07/22 01:58:20;;;;;;;13.85;5.97;;;;;;;;;;5066817;28;20067;-79
2023/07/22 02:00:50;;;;;;;15.85;6.13;;;;;;;;;;5061971;28;20043;-79
2023/07/22 02:03:22;;;;;;;17.02;6.70;;;;;;;;;;5078778;28;20074;-79
2023/07/22 02:05:47;;;;;;;16.48;5.95;;;;;;;;;;5083868;28;20036;-79
2023/07/22 02:08:36;;;;;;;12.98;5.47;;;;;;;;;;5086213;28;20110;-79
2023/07/22 02:11:06;;;;;;;13.65;6.15;;;;;;;;;;5084727;28;20036;-79
2023/07/22 02:13:33;;;;;;;12.15;6.20;;;;;;;;;;5049528;28;20052;-79
2023/07/22 02:16:05;;;;;;;13.82;6.85;;;;;;;;;;5048443;28;20041;-79
2023/07/22 02:23:03;;;;;;;16.02;5.88;;;;;;;;;;5048317;28;20035;-79
2023/07/22 02:26:10;;;;;;;16.35;5.95;;;;;;;;;;4981712;28;20042;-79
2023/07/22 02:28:36;;;;;;;14.38;5.68;;;;;;;;;;5021845;28;20063;-79
2023/07/22 02:31:07;;;;;;;13.38;6.20;;;;;;;;;;5048143;28;20032;-79
2023/07/22 02:33:32;;;;;;;15.32;6.88;;;;;;;;;;5047203;28;20040;-79
2023/07/22 02:36:01;;;;;;;15.07;6.25;;;;;;;;;;5044074;28;20034;-79
2023/07/22 02:38:27;;;;;;;14.63;6.10;;;;;;;;;;5028044;28;20109;-79
2023/07/22 02:40:56;;;;;;;14.48;5.97;;;;;;;;;;5017623;28;20496;-79
2023/07/22 02:43:27;;;;;;;14.45;6.13;;;;;;;;;;5047803;28;20043;-79
2023/07/22 02:45:53;;;;;;;12.85;6.40;;;;;;;;;;5047622;28;20045;-79
2023/07/22 02:48:20;;;;;;;12.55;5.40;;;;;;;;;;5039358;28;20128;-79
2023/07/22 02:50:51;;;;;;;12.80;5.72;;;;;;;;;;5028330;28;20036;-79
2023/07/22 02:53:40;;;;;;;;;;;;;;;;;;;;;
2023/07/22 02:56:07;;;;;;;17.08;6.03;;;;;;;;;;5012059;28;21749;-79
2023/07/22 02:58:36;;;;;;;18.05;7.25;;;;;;;;;;5028479;28;20029;-79
2023/07/22 03:05:35;;;;;;;;;;;;;;;;;;;;;
2023/07/22 03:08:12;;;;;;;16.90;6.63;;;;;;;;;;4932932;29;20437;-79
2023/07/22 03:10:47;;;;;;;17.10;6.15;;;;;;;;;;4929347;29;20497;-79
2023/07/22 03:14:20;;;;;;;;;;;;;;;;;;;;;
2023/07/22 03:17:30;;;;;;;14.00;6.25;;;;;;;;;;5043332;28;20501;-79
2023/07/22 03:19:39;;;;;;;15.52;5.90;;;;;;;;;;5033989;28;20052;-79
2023/07/22 03:22:11;;;;;;;13.55;6.20;;;;;;;;;;5038691;28;20052;-79
2023/07/22 03:24:47;;;;;;;;;;;;;;;;;;;;;
2023/07/22 03:27:23;;;;;;;16.20;6.25;;;;;;;;;;5062502;28;20046;-79
2023/07/22 03:29:51;;;;;;;17.70;6.43;;;;;;;;;;5066803;28;20044;-79
2023/07/22 03:32:17;;;;;;;17.08;6.43;;;;;;;;;;5067076;28;20027;-79
2023/07/22 03:34:46;;;;;;;13.63;6.40;;;;;;;;;;5066462;28;20041;-79
2023/07/22 03:37:20;;;;;;;15.50;6.40;;;;;;;;;;5066946;28;20044;-79
2023/07/22 03:39:51;;;;;;;12.20;6.10;;;;;;;;;;5066107;28;20044;-79
2023/07/22 03:49:02;;;;;;;14.75;6.25;;;;;;;;;;4970648;28;20073;-79
2023/07/22 03:51:28;;;;;;;12.38;6.22;;;;;;;;;;5067101;28;20099;-79
2023/07/22 03:53:54;;;;;;;14.98;5.88;;;;;;;;;;5066829;28;20713;-79
2023/07/22 03:56:26;;;;;;;14.80;5.80;;;;;;;;;;5067063;28;20029;-79
2023/07/22 03:58:58;;;;;;;17.08;6.38;;;;;;;;;;5067039;28;20043;-79
2023/07/22 04:01:23;;;;;;;18.05;6.35;;;;;;;;;;5065950;28;20079;-79
2023/07/22 04:04:18;;;;;;;18.35;6.38;;;;;;;;;;5065578;28;20068;-79
2023/07/22 04:06:47;;;;;;;16.60;5.97;;;;;;;;;;5058450;28;20064;-79
2023/07/22 04:09:13;;;;;;;16.83;6.88;;;;;;;;;;5065998;28;20040;-79
2023/07/22 04:12:29;;;;;;;;;;;;;;;;;;;;;
2023/07/22 04:14:55;;;;;;;15.73;5.35;;;;;;;;;;5036330;28;20040;-79
2023/07/22 04:17:24;;;;;;;14.82;6.38;;;;;;;;;;5048741;28;20031;-79
2023/07/22 04:20:24;;;;;;;;;;;;;;;;;;;;;
2023/07/22 04:22:56;;;;;;;12.95;5.60;;;;;;;;;;5062345;28;20536;-79
2023/07/22 04:25:28;;;;;;;13.68;5.85;;;;;;;;;;5065623;28;20037;-79
2023/07/22 04:31:39;;;;;;;11.25;5.43;;;;;;;;;;4938966;28;20508;-79
2023/07/22 04:34:35;;;;;;;14.00;6.25;;;;;;;;;;5029775;28;20755;-79
2023/07/22 04:37:04;;;;;;;18.25;6.00;;;;;;;;;;5043723;28;20082;-79
2023/07/22 04:39:46;;;;;;;;;;;;;;;;;;;;;
2023/07/22 04:42:31;;;;;;;;;;;;;;;;;;;;;
2023/07/22 04:45:00;;;;;;;12.30;5.63;;;;;;;;;;5059772;28;20041;-79
2023/07/22 04:47:25;;;;;;;16.05;6.57;;;;;;;;;;5066371;28;20113;-79
2023/07/22 04:49:53;;;;;;;14.60;5.97;;;;;;;;;;5064937;28;20643;-79
2023/07/22 04:52:29;;;;;;;16.08;6.18;;;;;;;;;;5066034;28;20057;-79
2023/07/22 04:55:09;;;;;;;12.45;6.15;;;;;;;;;;5065289;28;20032;-79
2023/07/22 04:57:42;;;;;;;16.85;6.18;;;;;;;;;;5065241;28;20043;-79
2023/07/22 05:00:20;;;;;;;14.48;5.80;;;;;;;;;;5064550;28;20044;-79
2023/07/22 05:03:01;;;;;;;17.08;5.80;;;;;;;;;;5064476;28;20136;-79
2023/07/22 05:16:00;;;;;;;13.40;5.10;;;;;;;;;;4969640;28;20041;-79
2023/07/22 05:18:26;;;;;;;12.55;6.28;;;;;;;;;;5086483;28;20055;-79
2023/07/22 05:20:52;;;;;;;11.02;5.68;;;;;;;;;;5083679;28;20071;-79
2023/07/22 05:23:26;;;;;;;14.90;5.78;;;;;;;;;;5084988;28;20058;-79
2023/07/22 05:25:55;;;;;;;12.15;5.32;;;;;;;;;;5084401;28;20043;-79
2023/07/22 05:28:36;;;;;;;;;;;;;;;;;;;;;
2023/07/22 05:31:02;;;;;;;13.68;5.75;;;;;;;;;;5063425;28;20033;-79
2023/07/22 05:33:28;;;;;;;19.38;6.03;;;;;;;;;;5063633;28;20036;-79
2023/07/22 05:35:54;;;;;;;16.40;6.03;;;;;;;;;;5065376;28;20090;-79
2023/07/22 05:38:27;;;;;;;13.93;5.90;;;;;;;;;;5046809;28;20051;-79
2023/07/22 05:40:58;;;;;;;15.50;6.57;;;;;;;;;;5064103;28;20048;-79
2023/07/22 05:43:59;;;;;;;13.68;5.65;;;;;;;;;;5064094;28;20029;-79
2023/07/22 05:47:01;;;;;;;13.68;5.57;;;;;;;;;;5053845;28;20041;-79
2023/07/22 05:49:28;;;;;;;13.48;6.18;;;;;;;;;;5062918;28;20128;-79
2023/07/22 05:51:56;;;;;;;14.93;5.78;;;;;;;;;;5063371;28;20036;-79
2023/07/22 05:54:22;;;;;;;10.77;5.68;;;;;;;;;;5063564;28;20545;-79
2023/07/22 05:57:11;;;;;;;13.00;5.95;;;;;;;;;;5048295;28;20175;-79
2023/07/22 05:59:39;;;;;;;12.85;5.25;;;;;;;;;;5050560;28;20529;-79
2023/07/22 06:02:06;;;;;;;12.07;5.45;;;;;;;;;;5066278;28;20040;-79
2023/07/22 06:04:32;;;;;;;15.13;6.40;;;;;;;;;;5064380;28;20094;-79
2023/07/22 06:07:02;;;;;;;13.43;6.03;;;;;;;;;;5063495;28;20541;-79
2023/07/22 06:10:06;;;;;;;14.88;5.82;;;;;;;;;;5046513;28;20756;-79
2023/07/22 06:12:34;;;;;;;15.93;5.30;;;;;;;;;;5062501;28;20151;-79
2023/07/22 06:15:02;;;;;;;12.95;5.40;;;;;;;;;;5066134;28;20036;-79
2023/07/22 06:17:39;;;;;;;11.00;5.20;;;;;;;;;;5083352;28;20050;-79
2023/07/22 06:20:05;;;;;;;14.90;5.90;;;;;;;;;;5081069;28;20028;-79
2023/07/22 06:22:44;;;;;;;;;;;;;;;;;;;;;
2023/07/22 06:25:19;;;;;;;12.68;5.70;;;;;;;;;;5084648;28;20036;-79
2023/07/22 06:28:06;;;;;;;12.45;5.30;;;;;;;;;;5068727;28;20060;-79
2023/07/22 06:30:55;;;;;;;11.68;5.80;;;;;;;;;;5063406;28;20043;-79
2023/07/22 06:36:46;;;;;;;;;;;;;;;;;;;;;
2023/07/22 06:40:18;;;;;;;12.05;5.30;;;;;;;;;;4880029;29;20050;-79
2023/07/22 06:42:42;;;;;;;13.20;5.85;;;;;;;;;;4922884;29;20060;-79
2023/07/22 06:45:23;;;;;;;10.07;5.28;;;;;;;;;;4924657;29;20138;-79
2023/07/22 06:47:52;;;;;;;12.10;5.65;;;;;;;;;;5005368;28;20098;-79
2023/07/22 06:50:21;;;;;;;13.98;5.57;;;;;;;;;;5064408;28;20020;-79
2023/07/22 06:52:56;;;;;;;13.48;5.78;;;;;;;;;;5046338;28;20037;-79
2023/07/22 06:55:30;;;;;;;13.98;5.80;;;;;;;;;;5079350;28;20047;-79
2023/07/22 06:58:21;;;;;;;10.98;5.32;;;;;;;;;;5086939;28;20032;-79
2023/07/22 07:01:01;;;;;;;13.57;5.28;;;;;;;;;;5072987;28;20105;-79
2023/07/22 07:03:30;;;;;;;11.70;5.20;;;;;;;;;;5071573;28;20049;-79
2023/07/22 07:06:01;;;;;;;11.00;4.82;;;;;;;;;;5068259;28;20036;-79
2023/07/22 07:08:33;;;;;;;12.57;5.40;;;;;;;;;;5067775;28;20029;-80
2023/07/22 07:11:36;;;;;;;14.88;5.90;;;;;;;;;;5071301;28;20503;-79
2023/07/22 07:14:22;;;;;;;;;;;;;;;;;;;;;
2023/07/22 07:16:51;;;;;;;12.05;4.97;;;;;;;;;;5057232;28;20040;-79
2023/07/22 07:19:26;;;;;;;7.65;4.45;;;;;;;;;;5060258;28;20499;-79
2023/07/22 07:22:03;;;;;;;13.65;4.93;;;;;;;;;;5081711;28;20055;-79
2023/07/22 07:25:18;;;;;;;;;;;;;;;;;;;;;
2023/07/22 07:27:45;;;;;;;10.52;5.03;;;;;;;;;;5068731;28;20040;-79
2023/07/22 07:30:17;;;;;;;11.27;5.22;;;;;;;;;;5075094;28;20044;-79
2023/07/22 07:32:46;;;;;;;8.80;4.43;;;;;;;;;;5077310;28;20032;-79
2023/07/22 07:35:25;;;;;;;9.82;4.68;;;;;;;;;;5060810;28;20115;-79
2023/07/22 07:38:04;;;;;;;;;;;;;;;;;;;;;
2023/07/22 07:40:37;;;;;;;10.93;4.97;;;;;;;;;;5066868;28;20044;-79
2023/07/22 07:43:07;;;;;;;11.55;5.18;;;;;;;;;;5056942;28;20024;-79
2023/07/22 07:45:43;;;;;;;9.93;4.95;;;;;;;;;;5049410;28;20127;-79
2023/07/22 07:51:26;;;;;;;11.68;4.43;;;;;;;;;;5040127;28;20130;-78
2023/07/22 07:53:52;;;;;;;9.65;5.22;;;;;;;;;;5075641;28;20510;-79
2023/07/22 07:56:18;;;;;;;10.50;4.28;;;;;;;;;;5066967;28;20033;-79
2023/07/22 08:09:07;;;;;;;5.55;3.40;;;;;;;;;;4953942;28;20035;-79
2023/07/22 08:11:43;;;;;;;8.88;3.83;;;;;;;;;;5034329;28;20150;-79
2023/07/22 08:14:09;;;;;;;8.55;3.35;;;;;;;;;;5067363;28;20033;-79
2023/07/22 08:16:35;;;;;;;9.82;3.80;;;;;;;;;;5066544;28;20077;-79
2023/07/22 08:19:04;;;;;;;9.48;3.70;;;;;;;;;;5068823;28;20032;-79
2023/07/22 08:21:33;;;;;;;8.48;3.53;;;;;;;;;;5066104;28;20029;-79
2023/07/22 08:24:02;;;;;;;9.15;4.10;;;;;;;;;;5069277;28;20665;-79
2023/07/22 08:26:39;;;;;;;8.15;3.10;;;;;;;;;;5081829;28;20028;-79
2023/07/22 08:29:05;;;;;;;7.03;3.10;;;;;;;;;;5069621;28;20082;-79
2023/07/22 08:31:30;;;;;;;7.63;3.35;;;;;;;;;;5056661;28;20051;-79
2023/07/22 08:33:56;;;;;;;7.55;3.67;;;;;;;;;;5071283;28;20461;-79
2023/07/22 08:36:22;;;;;;;8.65;3.70;;;;;;;;;;5075637;28;20037;-79
2023/07/22 08:39:56;;;;;;;6.72;3.03;;;;;;;;;;5048948;28;20081;-79
2023/07/22 08:45:37;;;;;;;6.90;2.72;;;;;;;;;;4987767;28;20108;-80
2023/07/22 08:48:07;;;;;;;7.53;2.80;;;;;;;;;;5032434;28;20043;-80
2023/07/22 08:50:45;;;;;;;3.00;1.95;;;;;;;;;;5076147;28;20032;-81
2023/07/22 08:53:33;;;;;;;9.13;2.75;;;;;;;;;;5087155;28;20071;-81
2023/07/22 08:56:02;;;;;;;5.85;2.28;;;;;;;;;;5058716;28;20419;-81
2023/07/22 08:58:32;;;;;;;4.18;1.77;;;;;;;;;;5048774;28;20029;-81
2023/07/22 09:00:59;;;;;;;7.85;2.38;;;;;;;;;;5087048;28;20059;-81
2023/07/22 09:03:58;;;;;;;;;;;;;;;;;;;;;
2023/07/22 09:06:33;;;;;;;4.40;2.20;;;;;;;;;;5084465;28;20036;-81
2023/07/22 09:09:07;;;;;;;3.80;1.70;;;;;;;;;;5053016;28;20048;-81
2023/07/22 09:11:34;;;;;;;4.25;2.03;;;;;;;;;;5073873;28;20409;-81
2023/07/22 09:14:10;;;;;;;4.45;2.13;;;;;;;;;;5066934;28;20032;-81
2023/07/22 09:16:37;;;;;;;4.47;2.10;;;;;;;;;;5075273;28;20028;-81
2023/07/22 09:19:16;;;;;;;;;;;;;;;;;;;;;
2023/07/22 09:21:47;;;;;;;4.30;1.77;;;;;;;;;;5081722;28;20073;-81
2023/07/22 09:24:29;;;;;;;5.63;2.00;;;;;;;;;;5085729;28;20064;-81
2023/07/22 09:27:04;;;;;;;3.53;1.65;;;;;;;;;;5076744;28;20041;-81
2023/07/22 09:30:05;;;;;;;3.17;1.45;;;;;;;;;;5064333;28;20036;-81
2023/07/22 09:32:43;;;;;;;3.83;1.60;;;;;;;;;;5084327;28;20044;-81
2023/07/22 09:35:56;;;;;;;;;;;;;;;;;;;;;
2023/07/22 09:38:41;;;;;;;4.85;1.80;;;;;;;;;;4984317;28;20036;-81
2023/07/22 09:41:07;;;;;;;3.50;1.85;;;;;;;;;;5084426;28;20102;-81
2023/07/22 09:44:23;;;;;;;3.88;2.20;;;;;;;;;;5055937;28;20028;-81
2023/07/22 09:47:12;;;;;;;19.50;2.60;;;;;;;;;;5000251;28;20053;-80
2023/07/22 09:49:59;;;;;;;;;;;;;;;;;;;;;
2023/07/22 09:52:31;;;;;;;4.07;1.80;;;;;;;;;;5060388;28;20033;-80
2023/07/22 09:54:58;;;;;;;3.58;1.92;;;;;;;;;;5048057;28;20530;-79
2023/07/22 09:57:27;;;;;;;8.65;2.20;;;;;;;;;;5065805;28;20037;-79
2023/07/22 09:59:53;;;;;;;3.50;2.10;;;;;;;;;;5073955;28;20131;-79
2023/07/22 10:02:21;;;;;;;5.45;2.15;;;;;;;;;;5047643;28;20147;-79
2023/07/22 10:04:51;;;;;;;4.05;2.00;;;;;;;;;;5052117;28;20766;-79
2023/07/22 10:07:19;;;;;;;3.33;2.20;;;;;;;;;;5057040;28;20055;-80
2023/07/22 10:09:46;;;;;;;15.43;3.08;;;;;;;;;;5069638;28;20042;-80
2023/07/22 10:12:14;;;;;;;7.00;2.70;;;;;;;;;;5076621;28;20951;-80
2023/07/22 10:15:09;;;;;;;3.05;2.08;;;;;;;;;;5068420;28;20044;-79
2023/07/22 10:17:45;;;;;;;5.55;2.30;;;;;;;;;;5067773;28;20043;-80
2023/07/22 10:20:15;;;;;;;3.53;2.13;;;;;;;;;;5067864;28;20089;-79
2023/07/22 10:43:32;;;;;;;3.90;2.08;;;;;;;;;;4970647;28;20093;-81
2023/07/22 10:49:49;;;;;;;3.00;2.10;;;;;;;;;;4990201;28;20142;-81
2023/07/22 10:52:37;;;;;;;5.60;2.42;;;;;;;;;;4984971;28;20038;-82
2023/07/22 10:55:06;;;;;;;5.15;2.22;;;;;;;;;;5057998;28;20064;-82
2023/07/22 10:57:32;;;;;;;5.70;2.08;;;;;;;;;;5048389;28;20049;-82
2023/07/22 10:59:57;;;;;;;4.15;2.00;;;;;;;;;;5029673;28;20037;-82
2023/07/22 11:02:25;;;;;;;3.47;2.00;;;;;;;;;;5048179;28;20044;-82
2023/07/22 11:04:53;;;;;;;6.93;2.00;;;;;;;;;;5051005;28;20457;-82
2023/07/22 11:07:44;;;;;;;4.85;2.00;;;;;;;;;;5057776;28;20032;-82
2023/07/22 11:10:19;;;;;;;4.20;2.65;;;;;;;;;;5059451;28;20573;-82
2023/07/22 11:12:45;;;;;;;3.50;2.10;;;;;;;;;;5049273;28;20037;-82
2023/07/22 11:15:29;;;;;;;4.35;2.20;;;;;;;;;;5023106;28;20573;-82
2023/07/22 11:18:06;;;;;;;4.38;1.80;;;;;;;;;;5039756;28;20082;-82
2023/07/22 11:20:42;;;;;;;2.70;1.92;;;;;;;;;;5042790;28;20065;-82
2023/07/22 11:23:08;;;;;;;4.15;2.00;;;;;;;;;;5026608;28;20407;-82
2023/07/22 11:25:34;;;;;;;3.25;2.00;;;;;;;;;;5018080;28;20094;-82
2023/07/22 11:28:09;;;;;;;3.17;1.98;;;;;;;;;;5021903;28;20039;-82
2023/07/22 11:30:46;;;;;;;2.90;1.88;;;;;;;;;;5044899;28;20142;-82
2023/07/22 11:36:41;;;;;;;3.38;2.30;;;;;;;;;;5034304;28;20087;-80
2023/07/22 11:39:36;;;;;;;2.47;1.90;;;;;;;;;;5034058;28;20053;-79
2023/07/22 11:42:25;;;;;;;3.85;2.00;;;;;;;;;;5043838;28;20098;-80
2023/07/22 11:44:50;;;;;;;3.83;2.20;;;;;;;;;;5055464;28;20037;-79
2023/07/22 11:47:37;;;;;;;3.47;2.15;;;;;;;;;;5039403;28;20107;-79
2023/07/22 11:50:04;;;;;;;2.90;2.00;;;;;;;;;;5026409;28;20043;-79
2023/07/22 11:52:30;;;;;;;2.33;1.73;;;;;;;;;;5027118;28;20021;-79
2023/07/22 11:55:13;;;;;;;2.25;1.40;;;;;;;;;;5027736;28;20870;-79
2023/07/22 11:57:58;;;;;;;4.05;1.52;;;;;;;;;;5027735;28;20091;-79
2023/07/22 12:00:24;;;;;;;3.55;1.75;;;;;;;;;;5031965;28;20092;-79
2023/07/22 12:02:51;;;;;;;4.80;2.30;;;;;;;;;;5040265;28;20131;-79
2023/07/22 12:05:37;;;;;;;5.90;1.60;;;;;;;;;;5042201;28;20075;-81
2023/07/22 12:08:13;;;;;;;5.72;1.77;;;;;;;;;;5041600;28;20038;-79
2023/07/22 12:11:04;;;;;;;2.20;1.77;;;;;;;;;;5043094;28;20029;-81
2023/07/22 12:13:39;;;;;;;2.15;1.50;;;;;;;;;;5043544;28;20021;-79
2023/07/22 12:16:57;;;;;;;4.18;1.60;;;;;;;;;;5052119;28;20032;-80
2023/07/22 12:19:20;;;;;;;3.83;1.80;;;;;;;;;;5054012;28;20120;-79
2023/07/22 12:21:46;;;;;;;4.03;1.60;;;;;;;;;;5060312;28;20123;-79
2023/07/22 12:24:30;;;;;;;4.30;1.80;;;;;;;;;;5065860;28;20089;-79
2023/07/22 12:26:58;;;;;;;3.00;1.73;;;;;;;;;;5054274;28;20033;-79
2023/07/22 12:33:17;;;;;;;2.60;2.03;;;;;;;;;;5013570;28;20036;-78
2023/07/22 12:35:43;;;;;;;5.00;1.80;;;;;;;;;;5047709;28;20025;-79
2023/07/22 12:38:08;;;;;;;4.70;1.83;;;;;;;;;;5046386;28;20128;-79
2023/07/22 12:40:34;;;;;;;2.95;1.98;;;;;;;;;;5040882;28;20022;-79
2023/07/22 12:43:00;;;;;;;3.30;1.80;;;;;;;;;;5066150;28;20048;-79
2023/07/22 12:45:26;;;;;;;2.72;1.58;;;;;;;;;;5058789;28;20029;-79
2023/07/22 12:47:52;;;;;;;3.90;1.88;;;;;;;;;;5047109;28;20032;-79
2023/07/22 12:50:20;;;;;;;2.17;1.85;;;;;;;;;;5028552;28;20040;-79
2023/07/22 12:53:05;;;;;;;2.83;2.13;;;;;;;;;;5055193;28;20660;-80
2023/07/22 13:03:03;;;;;;;4.20;2.50;;;;;;;;;;5016690;28;20033;-79
2023/07/22 13:05:47;;;;;;;3.53;1.70;;;;;;;;;;5025386;28;20152;-79
2023/07/22 13:08:52;;;;;;;4.00;1.80;;;;;;;;;;5025199;28;20029;-79
2023/07/22 13:18:53;;;;;;;4.35;2.13;;;;;;;;;;4962450;28;20049;-79
2023/07/22 13:32:07;;;;;;;4.07;1.92;;;;;;;;;;4903753;28;20139;-80
2023/07/22 13:34:36;;;;;;;4.13;2.10;;;;;;;;;;4984299;28;20065;-79
2023/07/22 13:37:20;;;;;;;;;;;;;;;;;;;;;
2023/07/22 13:43:16;;;;;;;4.30;1.63;;;;;;;;;;5000585;28;20062;-78
2023/07/22 13:46:12;;;;;;;2.08;1.40;;;;;;;;;;5000502;28;20044;-78
2023/07/22 13:48:38;;;;;;;3.50;2.00;;;;;;;;;;5015812;28;20124;-78
2023/07/22 13:52:09;;;;;;;;;;;;;;;;;;;;;
2023/07/22 14:01:16;;;;;;;9.50;2.75;;;;;;;;;;4993212;28;20047;-79
2023/07/22 14:07:14;;;;;;;3.45;1.60;;;;;;;;;;4964096;28;20036;-80
2023/07/22 14:13:00;;;;;;;2.47;1.60;;;;;;;;;;5060694;28;20129;-80
2023/07/22 14:19:30;;;;;;;3.92;2.00;;;;;;;;;;4978326;28;20041;-80
2023/07/22 14:22:43;;;;;;;4.20;1.60;;;;;;;;;;5019294;28;20056;-80
2023/07/22 14:25:31;;;;;;;;;;;;;;;;;;;;;
2023/07/22 14:28:31;;;;;;;3.78;1.70;;;;;;;;;;5009252;28;20057;-79
2023/07/22 14:34:47;;;;;;;2.50;1.60;;;;;;;;;;4961900;28;20128;-79
2023/07/22 14:37:37;;;;;;;2.55;1.65;;;;;;;;;;5014420;28;20588;-79
2023/07/22 14:40:08;;;;;;;3.28;1.88;;;;;;;;;;5005084;28;20041;-79
2023/07/22 14:42:54;;;;;;;5.88;1.60;;;;;;;;;;4988665;28;20062;-79
2023/07/22 14:45:20;;;;;;;3.65;1.75;;;;;;;;;;4983586;28;20053;-79
2023/07/22 14:47:48;;;;;;;6.50;2.15;;;;;;;;;;5044100;28;20037;-78
2023/07/22 14:50:48;;;;;;;3.83;1.70;;;;;;;;;;5054377;28;20097;-79
2023/07/22 14:57:26;;;;;;;3.33;1.77;;;;;;;;;;4966519;28;20640;-79
2023/07/22 15:03:27;;;;;;;3.75;1.80;;;;;;;;;;4978156;28;20057;-79
2023/07/22 15:06:40;;;;;;;6.68;2.08;;;;;;;;;;4984754;28;20210;-79
2023/07/22 15:09:06;;;;;;;4.07;1.85;;;;;;;;;;5002576;28;20038;-79
2023/07/22 15:14:42;;;;;;;4.05;1.75;;;;;;;;;;5043666;28;20911;-79
2023/07/22 15:20:27;;;;;;;3.45;1.70;;;;;;;;;;5053247;28;20052;-79
2023/07/22 15:22:56;;;;;;;5.18;2.10;;;;;;;;;;5042381;28;20521;-79
2023/07/22 15:25:33;;;;;;;2.70;1.80;;;;;;;;;;5032670;28;20114;-79
2023/07/22 15:31:27;;;;;;;4.40;2.25;;;;;;;;;;5004858;28;20091;-79
2023/07/22 15:34:14;;;;;;;6.33;2.13;;;;;;;;;;5018461;28;20624;-79
2023/07/22 15:37:26;;;;;;;5.90;2.20;;;;;;;;;;5008896;28;20041;-79
2023/07/22 15:43:09;;;;;;;;;;;;;;;;;;;;;
2023/07/22 15:45:37;;;;;;;5.15;1.88;;;;;;;;;;5058799;28;20559;-79
2023/07/22 15:51:11;;;;;;;3.08;1.90;;;;;;;;;;5071900;28;20523;-79
2023/07/22 15:53:37;;;;;;;3.88;1.80;;;;;;;;;;5075655;28;20122;-79
2023/07/22 15:56:06;;;;;;;2.92;1.83;;;;;;;;;;5085244;28;20125;-79
2023/07/22 15:58:44;;;;;;;3.60;2.13;;;;;;;;;;5078150;28;20413;-79
2023/07/22 16:01:10;;;;;;;5.18;2.03;;;;;;;;;;5078339;28;20688;-79
2023/07/22 16:04:00;;;;;;;5.75;2.20;;;;;;;;;;5080297;28;20043;-79
2023/07/22 16:06:29;;;;;;;3.90;2.17;;;;;;;;;;5052823;28;20068;-79
2023/07/22 16:08:58;;;;;;;4.38;1.98;;;;;;;;;;5081578;28;20120;-79
2023/07/22 16:12:10;;;;;;;5.32;2.40;;;;;;;;;;5078778;28;20051;-79
2023/07/22 16:15:30;;;;;;;3.97;2.27;;;;;;;;;;5076465;28;20726;-79
2023/07/22 16:20:53;;;;;;;;;;;;;;;;;;;;;
2023/07/22 16:23:27;;;;;;;5.63;2.17;;;;;;;;;;5067350;28;20044;-79
2023/07/22 16:25:52;;;;;;;;;;;;;;;;;;5066442;28;20058;-79
2023/07/22 16:28:22;;;;;;;5.78;2.20;;;;;;;;;;5076481;28;19928;-79
2023/07/22 16:30:47;;;;;;;7.15;2.30;;;;;;;;;;5036469;28;20036;-80
2023/07/22 16:33:19;;;;;;;5.13;2.47;;;;;;;;;;5052774;28;20028;-80
2023/07/22 16:35:48;;;;;;;5.80;2.30;;;;;;;;;;5073431;28;20122;-80
2023/07/22 16:38:23;;;;;;;3.65;2.00;;;;;;;;;;5060213;28;20037;-80
2023/07/22 16:40:54;;;;;;;4.45;2.17;;;;;;;;;;5077008;28;20035;-80
2023/07/22 16:43:33;;;;;;;6.03;2.00;;;;;;;;;;5070517;28;20087;-80
2023/07/22 16:46:22;;;;;;;4.30;2.08;;;;;;;;;;5019913;28;20695;-79
2023/07/22 16:48:56;;;;;;;5.30;2.65;;;;;;;;;;5038927;28;20143;-79
2023/07/22 16:51:23;;;;;;;5.60;2.72;;;;;;;;;;5053737;28;20053;-80
2023/07/22 16:53:54;;;;;;;3.78;2.30;;;;;;;;;;5026320;28;20514;-80
2023/07/22 16:59:42;;;;;;;5.28;2.45;;;;;;;;;;5051632;28;20051;-80
2023/07/22 17:02:19;;;;;;;5.28;2.25;;;;;;;;;;5055842;28;20036;-80
2023/07/22 17:04:45;;;;;;;5.35;2.60;;;;;;;;;;5049496;28;20900;-79
2023/07/22 17:08:00;;;;;;;3.20;2.10;;;;;;;;;;5058790;28;20025;-80
2023/07/22 17:13:25;;;;;;;4.43;2.72;;;;;;;;;;5060772;28;20047;-80
2023/07/22 17:15:51;;;;;;;5.80;2.70;;;;;;;;;;5049377;28;20619;-80
2023/07/22 17:18:17;;;;;;;4.30;2.35;;;;;;;;;;5043915;28;20112;-80
2023/07/22 17:21:11;;;;;;;4.85;2.35;;;;;;;;;;5044246;28;20162;-80
2023/07/22 17:23:46;;;;;;;5.25;2.50;;;;;;;;;;5007728;28;20717;-80
2023/07/22 17:26:49;;;;;;;4.18;2.40;;;;;;;;;;5036751;28;20040;-80
2023/07/22 17:29:36;;;;;;;5.82;2.70;;;;;;;;;;5039591;28;20029;-80
2023/07/22 17:32:26;;;;;;;5.88;2.60;;;;;;;;;;5025994;28;20033;-80
2023/07/22 17:35:16;;;;;;;4.65;2.30;;;;;;;;;;5042400;28;20036;-80
2023/07/22 17:38:15;;;;;;;3.88;2.35;;;;;;;;;;5044665;28;20021;-80
2023/07/22 17:40:43;;;;;;;3.97;2.20;;;;;;;;;;5026335;28;20075;-80
2023/07/22 17:46:05;;;;;;;7.53;2.30;;;;;;;;;;5057670;28;20043;-80
2023/07/22 17:49:14;;;;;;;6.10;2.30;;;;;;;;;;5047046;28;20145;-80
2023/07/22 17:52:32;;;;;;;5.45;2.38;;;;;;;;;;5015473;28;20129;-80
2023/07/22 17:55:56;;;;;;;6.95;2.60;;;;;;;;;;5009040;28;20034;-80
2023/07/22 17:59:10;;;;;;;;;;;;;;;;;;;;;
2023/07/22 18:01:36;;;;;;;5.28;2.42;;;;;;;;;;4975795;28;20938;-80
2023/07/22 18:05:00;;;;;;;4.80;2.40;;;;;;;;;;4996644;28;20030;-80
2023/07/22 18:10:39;;;;;;;4.10;2.30;;;;;;;;;;5065160;28;20047;-80
2023/07/22 18:13:05;;;;;;;3.75;2.20;;;;;;;;;;5067349;28;20056;-80
2023/07/22 18:15:36;;;;;;;5.50;2.28;;;;;;;;;;5076893;28;20117;-80
2023/07/22 18:18:17;;;;;;;11.45;2.50;;;;;;;;;;5082839;28;20032;-80
2023/07/22 18:20:52;;;;;;;5.30;2.70;;;;;;;;;;5083540;28;20090;-80
2023/07/22 18:23:45;;;;;;;5.00;2.35;;;;;;;;;;5064781;28;20040;-80
2023/07/22 18:26:35;;;;;;;5.35;2.47;;;;;;;;;;5037507;28;20147;-80
2023/07/22 18:29:07;;;;;;;5.13;2.30;;;;;;;;;;5046840;28;20030;-80
2023/07/22 18:31:36;;;;;;;5.80;2.70;;;;;;;;;;5043364;28;20062;-79
2023/07/22 18:34:05;;;;;;;4.82;2.60;;;;;;;;;;5086689;28;20032;-80
2023/07/22 18:37:27;;;;;;;;;;;;;;;;;;;;;
2023/07/22 18:39:57;;;;;;;5.50;2.33;;;;;;;;;;5051326;28;20047;-80
2023/07/22 18:45:08;;;;;;;5.03;2.42;;;;;;;;;;5084510;28;20186;-80
2023/07/22 18:47:34;;;;;;;6.28;2.17;;;;;;;;;;5084507;28;20064;-80
2023/07/22 18:50:02;;;;;;;4.60;2.45;;;;;;;;;;5066808;28;20040;-80
2023/07/22 18:52:27;;;;;;;6.18;2.55;;;;;;;;;;5086963;28;20040;-80
2023/07/22 18:54:59;;;;;;;4.10;2.30;;;;;;;;;;5089980;28;20513;-80
2023/07/22 18:57:25;;;;;;;6.82;2.20;;;;;;;;;;5088846;28;20121;-80
2023/07/22 18:59:54;;;;;;;4.32;2.10;;;;;;;;;;5064704;28;20136;-80
2023/07/22 19:02:23;;;;;;;4.43;2.20;;;;;;;;;;5084759;28;20044;-80
2023/07/22 19:05:02;;;;;;;4.50;1.88;;;;;;;;;;5086790;28;20223;-79
2023/07/22 19:07:35;;;;;;;4.38;2.17;;;;;;;;;;5088896;28;20081;-80
2023/07/22 19:10:23;;;;;;;3.78;2.05;;;;;;;;;;5089782;28;20090;-80
2023/07/22 19:12:49;;;;;;;4.28;2.10;;;;;;;;;;5068602;28;20090;-80
2023/07/22 19:15:15;;;;;;;5.30;2.10;;;;;;;;;;5072061;28;20036;-79